sim
Sign-in with your pilot id or email,
or register
Callsign
Passwort

Schedule Details

Flight Number: RYR2319 (3)
Departure: Bratislava M. R. Stefanik Airport (LZIB) at 20:00
Arrival: London Stansted Airport (EGSS) at 22:25
Route: Ryanair Passenger Schedule. Enter filed route here before submitting Pirep.

Weather Information
Getting current METAR information for LZIB 310600Z 33010KT 9999 -RA FEW047 BKN076 BKN100 12/05 Q1015 NOSIG
Getting current METAR information for EGSS 310620Z AUTO 07008KT 9999 NCD 14/10 Q1023

Schedule Frequency

Route Map